Terminal Aerodrome Forecast
Issued by NWS Houston/Galveston, TX

Home | Current Version | Previous Version | Text Only | Print | Product List | Glossary On
Versions: 1 2 3 4 5 6 7 8 9 10 11 12 13 14 15 16 17 18 19
000
FTUS44 KHGX 270520
TAFCLL
TAF
KCLL 270520Z 2706/2806 06004KT P6SM FEW040 BKN250
     FM271600 06004KT P6SM FEW035 BKN150
     FM272100 07006KT P6SM VCSH BKN040 BKN150 PROB30 2721/2801 P6SM
      SHRA
     FM280100 05003KT P6SM OVC100=

USA.gov is the U.S. government's official web portal to all federal, state and local government web resources and services.